X  Schlie├čen METAR Luftfahrt Wetterdaten     EDNY Friedrichshafen Airport
Temperatur
30°F Temperatur
30°F Taupunkt
100% Feuchtigkeit



Wind
2 MPS
3 KM/S
1 M/S
2 KTS



Kein Wind
N
Aktuelle Wetterlage

Leicht  Schnee Leicht Schnee
Luftdruck 1011.85 (hPa) - 29.88 (inHg)
Sichtweite 2.7 (Meile) - 4.3 (Km)
Flughafen
Flughafen Code EDNY

Position : Friedrichshafen Airport
Entfernung: 40 (mi)

Metar:
EDNY 021450Z VRB02KT 4300 -SN SCT005 OVC025 M01/M01 Q1012

Zeit: 02-12-2023 15:50 CET